sensor_id;sensor_type;location;lat;lon;timestamp;pressure;altitude;pressure_sealevel;temperature;humidity
85315;BME280;75718;50.886;11.656;2024-02-26T00:00:25;97346.72;;;1.51;91.82
85315;BME280;75718;50.886;11.656;2024-02-26T00:02:51;97347.81;;;1.41;92.04
85315;BME280;75718;50.886;11.656;2024-02-26T00:05:16;97349.63;;;1.37;90.92
85315;BME280;75718;50.886;11.656;2024-02-26T00:07:41;97342.16;;;1.27;91.46
85315;BME280;75718;50.886;11.656;2024-02-26T00:10:08;97330.00;;;1.30;91.75
85315;BME280;75718;50.886;11.656;2024-02-26T00:12:33;97336.88;;;1.31;91.62
85315;BME280;75718;50.886;11.656;2024-02-26T00:14:58;97332.50;;;1.35;91.52
85315;BME280;75718;50.886;11.656;2024-02-26T00:17:24;97329.09;;;1.33;91.04
85315;BME280;75718;50.886;11.656;2024-02-26T00:19:49;97334.28;;;1.31;90.69
85315;BME280;75718;50.886;11.656;2024-02-26T00:22:15;97322.44;;;1.23;90.68
85315;BME280;75718;50.886;11.656;2024-02-26T00:24:40;97329.47;;;1.17;91.47
85315;BME280;75718;50.886;11.656;2024-02-26T00:27:06;97321.91;;;1.09;91.31
85315;BME280;75718;50.886;11.656;2024-02-26T00:29:31;97324.59;;;1.05;91.74
85315;BME280;75718;50.886;11.656;2024-02-26T00:31:57;97316.19;;;0.97;92.16
85315;BME280;75718;50.886;11.656;2024-02-26T00:34:22;97315.50;;;0.89;92.37
85315;BME280;75718;50.886;11.656;2024-02-26T00:36:48;97312.66;;;1.01;91.90
85315;BME280;75718;50.886;11.656;2024-02-26T00:39:13;97299.84;;;0.98;92.24
85315;BME280;75718;50.886;11.656;2024-02-26T00:41:40;97297.50;;;0.86;92.42
85315;BME280;75718;50.886;11.656;2024-02-26T00:44:05;97292.13;;;0.95;92.13
85315;BME280;75718;50.886;11.656;2024-02-26T00:46:30;97286.06;;;0.97;91.42
85315;BME280;75718;50.886;11.656;2024-02-26T00:48:55;97277.66;;;0.89;91.79
85315;BME280;75718;50.886;11.656;2024-02-26T00:51:21;97278.25;;;1.02;92.49
85315;BME280;75718;50.886;11.656;2024-02-26T00:53:46;97282.66;;;0.97;91.97
85315;BME280;75718;50.886;11.656;2024-02-26T00:56:11;97272.41;;;0.94;92.06
85315;BME280;75718;50.886;11.656;2024-02-26T00:58:36;97275.63;;;1.03;92.27
85315;BME280;75718;50.886;11.656;2024-02-26T01:01:02;97272.47;;;0.91;92.83
85315;BME280;75718;50.886;11.656;2024-02-26T01:03:28;97267.75;;;0.71;92.41
85315;BME280;75718;50.886;11.656;2024-02-26T01:05:53;97266.41;;;0.56;92.53
85315;BME280;75718;50.886;11.656;2024-02-26T01:08:18;97271.66;;;0.51;93.54
85315;BME280;75718;50.886;11.656;2024-02-26T01:10:44;97265.84;;;0.42;93.08
85315;BME280;75718;50.886;11.656;2024-02-26T01:13:09;97276.16;;;0.42;93.59
85315;BME280;75718;50.886;11.656;2024-02-26T01:15:34;97275.44;;;0.35;93.99
85315;BME280;75718;50.886;11.656;2024-02-26T01:17:59;97277.47;;;0.20;93.96
85315;BME280;75718;50.886;11.656;2024-02-26T01:20:25;97280.44;;;0.00;94.21
85315;BME280;75718;50.886;11.656;2024-02-26T01:22:50;97287.41;;;-0.04;94.61
85315;BME280;75718;50.886;11.656;2024-02-26T01:25:15;97285.75;;;-0.08;95.16
85315;BME280;75718;50.886;11.656;2024-02-26T01:27:41;97287.59;;;-0.15;95.12
85315;BME280;75718;50.886;11.656;2024-02-26T01:30:08;97280.72;;;-0.14;95.00
85315;BME280;75718;50.886;11.656;2024-02-26T01:32:33;97282.44;;;-0.15;95.44
85315;BME280;75718;50.886;11.656;2024-02-26T01:34:58;97284.28;;;-0.21;95.31
85315;BME280;75718;50.886;11.656;2024-02-26T01:37:24;97292.06;;;-0.23;95.22
85315;BME280;75718;50.886;11.656;2024-02-26T01:39:49;97297.25;;;-0.27;95.37
85315;BME280;75718;50.886;11.656;2024-02-26T01:42:15;97286.91;;;-0.23;95.35
85315;BME280;75718;50.886;11.656;2024-02-26T01:44:40;97284.47;;;-0.30;95.27
85315;BME280;75718;50.886;11.656;2024-02-26T01:47:07;97293.88;;;-0.29;95.34
85315;BME280;75718;50.886;11.656;2024-02-26T01:49:33;97284.28;;;-0.21;95.21
85315;BME280;75718;50.886;11.656;2024-02-26T01:52:00;97279.94;;;-0.19;95.33
85315;BME280;75718;50.886;11.656;2024-02-26T01:54:26;97277.31;;;-0.15;95.04
85315;BME280;75718;50.886;11.656;2024-02-26T01:56:52;97270.91;;;0.05;95.14
85315;BME280;75718;50.886;11.656;2024-02-26T01:59:17;97276.69;;;0.16;94.26
85315;BME280;75718;50.886;11.656;2024-02-26T02:01:44;97279.06;;;0.25;94.47
85315;BME280;75718;50.886;11.656;2024-02-26T02:04:13;97271.41;;;0.22;93.82
85315;BME280;75718;50.886;11.656;2024-02-26T02:06:41;97283.00;;;0.00;94.32
85315;BME280;75718;50.886;11.656;2024-02-26T02:09:08;97291.91;;;-0.15;94.56
85315;BME280;75718;50.886;11.656;2024-02-26T02:11:33;97298.91;;;-0.23;94.49
85315;BME280;75718;50.886;11.656;2024-02-26T02:13:59;97304.22;;;-0.31;95.51
85315;BME280;75718;50.886;11.656;2024-02-26T02:16:25;97294.00;;;-0.37;94.88
85315;BME280;75718;50.886;11.656;2024-02-26T02:18:50;97294.91;;;-0.39;95.57
85315;BME280;75718;50.886;11.656;2024-02-26T02:21:15;97294.97;;;-0.42;95.69
85315;BME280;75718;50.886;11.656;2024-02-26T02:23:40;97284.63;;;-0.39;95.45
85315;BME280;75718;50.886;11.656;2024-02-26T02:26:11;97285.16;;;-0.22;95.37
85315;BME280;75718;50.886;11.656;2024-02-26T02:28:37;97286.91;;;-0.23;95.17
85315;BME280;75718;50.886;11.656;2024-02-26T02:31:02;97289.00;;;-0.44;95.07
85315;BME280;75718;50.886;11.656;2024-02-26T02:33:29;97287.47;;;-0.56;95.35
85315;BME280;75718;50.886;11.656;2024-02-26T02:35:54;97295.28;;;-0.60;95.55
85315;BME280;75718;50.886;11.656;2024-02-26T02:38:20;97305.53;;;-0.57;96.21
85315;BME280;75718;50.886;11.656;2024-02-26T02:40:45;97301.19;;;-0.54;95.40
85315;BME280;75718;50.886;11.656;2024-02-26T02:43:11;97303.75;;;-0.54;95.84
85315;BME280;75718;50.886;11.656;2024-02-26T02:45:36;97309.03;;;-0.61;96.11
85315;BME280;75718;50.886;11.656;2024-02-26T02:48:01;97296.22;;;-0.65;95.57
85315;BME280;75718;50.886;11.656;2024-02-26T02:50:27;97303.19;;;-0.70;95.50
85315;BME280;75718;50.886;11.656;2024-02-26T02:52:54;97300.41;;;-0.59;96.10
85315;BME280;75718;50.886;11.656;2024-02-26T02:55:19;97297.56;;;-0.44;96.34
85315;BME280;75718;50.886;11.656;2024-02-26T02:57:44;97300.91;;;-0.39;96.07
85315;BME280;75718;50.886;11.656;2024-02-26T03:00:10;97291.78;;;-0.56;95.74
85315;BME280;75718;50.886;11.656;2024-02-26T03:02:36;97290.41;;;-0.76;95.50
85315;BME280;75718;50.886;11.656;2024-02-26T03:05:05;97297.91;;;-0.64;96.62
85315;BME280;75718;50.886;11.656;2024-02-26T03:07:30;97304.03;;;-0.70;96.40
85315;BME280;75718;50.886;11.656;2024-02-26T03:09:56;97296.28;;;-0.68;95.85
85315;BME280;75718;50.886;11.656;2024-02-26T03:12:21;97295.59;;;-0.78;96.17
85315;BME280;75718;50.886;11.656;2024-02-26T03:14:46;97292.28;;;-0.86;96.06
85315;BME280;75718;50.886;11.656;2024-02-26T03:17:12;97285.44;;;-0.87;97.06
85315;BME280;75718;50.886;11.656;2024-02-26T03:19:37;97283.38;;;-0.67;97.16
85315;BME280;75718;50.886;11.656;2024-02-26T03:22:02;97286.59;;;-0.53;97.06
85315;BME280;75718;50.886;11.656;2024-02-26T03:24:27;97282.44;;;-0.60;97.10
85315;BME280;75718;50.886;11.656;2024-02-26T03:26:53;97286.06;;;-0.74;96.66
85315;BME280;75718;50.886;11.656;2024-02-26T03:29:18;97295.63;;;-0.79;96.81
85315;BME280;75718;50.886;11.656;2024-02-26T03:31:43;97301.66;;;-0.82;96.06
85315;BME280;75718;50.886;11.656;2024-02-26T03:34:08;97302.50;;;-0.81;96.43
85315;BME280;75718;50.886;11.656;2024-02-26T03:36:34;97300.94;;;-0.90;96.40
85315;BME280;75718;50.886;11.656;2024-02-26T03:38:59;97300.06;;;-0.90;96.30
85315;BME280;75718;50.886;11.656;2024-02-26T03:41:24;97302.56;;;-0.87;96.64
85315;BME280;75718;50.886;11.656;2024-02-26T03:43:50;97298.28;;;-0.85;96.33
85315;BME280;75718;50.886;11.656;2024-02-26T03:46:15;97300.16;;;-0.96;95.99
85315;BME280;75718;50.886;11.656;2024-02-26T03:48:41;97305.25;;;-0.93;96.57
85315;BME280;75718;50.886;11.656;2024-02-26T03:51:08;97296.78;;;-1.00;96.49
85315;BME280;75718;50.886;11.656;2024-02-26T03:53:34;97302.56;;;-0.86;96.27
85315;BME280;75718;50.886;11.656;2024-02-26T03:56:04;97301.63;;;-0.80;96.08
85315;BME280;75718;50.886;11.656;2024-02-26T03:58:29;97316.09;;;-0.75;96.49
85315;BME280;75718;50.886;11.656;2024-02-26T04:00:54;97308.34;;;-0.73;96.42
85315;BME280;75718;50.886;11.656;2024-02-26T04:03:19;97309.13;;;-0.68;96.63
85315;BME280;75718;50.886;11.656;2024-02-26T04:05:45;97303.94;;;-0.64;95.67
85315;BME280;75718;50.886;11.656;2024-02-26T04:08:10;97307.22;;;-0.56;96.01
85315;BME280;75718;50.886;11.656;2024-02-26T04:10:35;97300.13;;;-0.42;96.10
85315;BME280;75718;50.886;11.656;2024-02-26T04:13:03;97309.34;;;-0.32;95.82
85315;BME280;75718;50.886;11.656;2024-02-26T04:15:28;97306.78;;;-0.32;96.22
85315;BME280;75718;50.886;11.656;2024-02-26T04:17:54;97317.25;;;-0.43;95.08
85315;BME280;75718;50.886;11.656;2024-02-26T04:20:19;97306.34;;;-0.55;95.14
85315;BME280;75718;50.886;11.656;2024-02-26T04:22:44;97305.56;;;-0.60;96.50
85315;BME280;75718;50.886;11.656;2024-02-26T04:25:10;97307.88;;;-0.45;95.59
85315;BME280;75718;50.886;11.656;2024-02-26T04:27:35;97305.94;;;-0.33;95.10
85315;BME280;75718;50.886;11.656;2024-02-26T04:30:00;97317.06;;;-0.29;95.50
85315;BME280;75718;50.886;11.656;2024-02-26T04:32:26;97310.41;;;-0.42;95.50
85315;BME280;75718;50.886;11.656;2024-02-26T04:34:51;97310.59;;;-0.53;95.86
85315;BME280;75718;50.886;11.656;2024-02-26T04:37:16;97318.31;;;-0.54;95.79
85315;BME280;75718;50.886;11.656;2024-02-26T04:39:42;97307.19;;;-0.55;95.89
85315;BME280;75718;50.886;11.656;2024-02-26T04:42:07;97312.31;;;-0.53;96.11
85315;BME280;75718;50.886;11.656;2024-02-26T04:44:32;97308.69;;;-0.42;97.30
85315;BME280;75718;50.886;11.656;2024-02-26T04:46:58;97305.13;;;-0.33;97.00
85315;BME280;75718;50.886;11.656;2024-02-26T04:49:24;97302.22;;;-0.15;96.62
85315;BME280;75718;50.886;11.656;2024-02-26T04:51:49;97301.97;;;-0.03;96.21
85315;BME280;75718;50.886;11.656;2024-02-26T04:54:14;97307.00;;;0.02;96.30
85315;BME280;75718;50.886;11.656;2024-02-26T04:56:40;97308.78;;;-0.01;96.18
85315;BME280;75718;50.886;11.656;2024-02-26T04:59:05;97313.13;;;-0.03;95.15
85315;BME280;75718;50.886;11.656;2024-02-26T05:01:30;97314.84;;;-0.03;95.13
85315;BME280;75718;50.886;11.656;2024-02-26T05:03:55;97307.44;;;-0.20;95.89
85315;BME280;75718;50.886;11.656;2024-02-26T05:06:21;97314.34;;;-0.23;95.55
85315;BME280;75718;50.886;11.656;2024-02-26T05:08:46;97305.88;;;-0.30;94.89
85315;BME280;75718;50.886;11.656;2024-02-26T05:11:11;97308.59;;;-0.37;95.23
85315;BME280;75718;50.886;11.656;2024-02-26T05:13:37;97305.84;;;-0.27;95.97
85315;BME280;75718;50.886;11.656;2024-02-26T05:16:02;97306.81;;;-0.34;95.67
85315;BME280;75718;50.886;11.656;2024-02-26T05:18:27;97304.34;;;-0.38;96.25
85315;BME280;75718;50.886;11.656;2024-02-26T05:20:53;97306.97;;;-0.43;96.51
85315;BME280;75718;50.886;11.656;2024-02-26T05:23:18;97305.44;;;-0.54;95.28
85315;BME280;75718;50.886;11.656;2024-02-26T05:25:43;97305.59;;;-0.63;96.18
85315;BME280;75718;50.886;11.656;2024-02-26T05:28:12;97296.19;;;-0.62;96.84
85315;BME280;75718;50.886;11.656;2024-02-26T05:30:37;97298.69;;;-0.60;96.83
85315;BME280;75718;50.886;11.656;2024-02-26T05:33:05;97298.69;;;-0.60;96.02
85315;BME280;75718;50.886;11.656;2024-02-26T05:35:30;97303.78;;;-0.57;96.51
85315;BME280;75718;50.886;11.656;2024-02-26T05:37:55;97306.34;;;-0.57;96.21
85315;BME280;75718;50.886;11.656;2024-02-26T05:40:20;97310.63;;;-0.56;95.66
85315;BME280;75718;50.886;11.656;2024-02-26T05:42:46;97312.38;;;-0.56;95.66
85315;BME280;75718;50.886;11.656;2024-02-26T05:45:11;97317.59;;;-0.62;95.45
85315;BME280;75718;50.886;11.656;2024-02-26T05:47:36;97310.66;;;-0.57;96.55
85315;BME280;75718;50.886;11.656;2024-02-26T05:50:10;97320.66;;;-0.39;96.10
85315;BME280;75718;50.886;11.656;2024-02-26T05:52:36;97309.34;;;-0.32;96.01
85315;BME280;75718;50.886;11.656;2024-02-26T05:55:02;97313.75;;;-0.39;95.95
85315;BME280;75718;50.886;11.656;2024-02-26T05:57:28;97323.16;;;-0.36;95.87
85315;BME280;75718;50.886;11.656;2024-02-26T05:59:53;97318.88;;;-0.36;95.40
85315;BME280;75718;50.886;11.656;2024-02-26T06:02:18;97325.78;;;-0.39;96.17
85315;BME280;75718;50.886;11.656;2024-02-26T06:04:43;97318.03;;;-0.38;95.62
85315;BME280;75718;50.886;11.656;2024-02-26T06:07:09;97323.72;;;-0.19;96.13
85315;BME280;75718;50.886;11.656;2024-02-26T06:09:34;97324.59;;;-0.22;96.14
85315;BME280;75718;50.886;11.656;2024-02-26T06:12:00;97338.81;;;0.00;96.26
85315;BME280;75718;50.886;11.656;2024-02-26T06:14:25;97346.41;;;0.06;95.65
85315;BME280;75718;50.886;11.656;2024-02-26T06:16:50;97340.44;;;0.05;96.04
85315;BME280;75718;50.886;11.656;2024-02-26T06:19:16;97343.03;;;0.02;95.70
85315;BME280;75718;50.886;11.656;2024-02-26T06:21:41;97342.13;;;0.06;96.39
85315;BME280;75718;50.886;11.656;2024-02-26T06:24:06;97352.25;;;0.17;96.56
85315;BME280;75718;50.886;11.656;2024-02-26T06:26:31;97350.41;;;0.23;96.23
85315;BME280;75718;50.886;11.656;2024-02-26T06:28:58;97339.03;;;0.32;96.60
85315;BME280;75718;50.886;11.656;2024-02-26T06:31:23;97330.19;;;0.45;95.97
85315;BME280;75718;50.886;11.656;2024-02-26T06:33:49;97327.41;;;0.55;96.05
85315;BME280;75718;50.886;11.656;2024-02-26T06:36:17;97336.59;;;0.66;95.39
85315;BME280;75718;50.886;11.656;2024-02-26T06:38:42;97330.50;;;0.72;95.20
85315;BME280;75718;50.886;11.656;2024-02-26T06:41:07;97337.31;;;0.74;95.42
85315;BME280;75718;50.886;11.656;2024-02-26T06:43:33;97339.81;;;0.77;94.74
85315;BME280;75718;50.886;11.656;2024-02-26T06:45:59;97331.19;;;0.80;95.35
85315;BME280;75718;50.886;11.656;2024-02-26T06:48:24;97335.97;;;0.95;94.02
85315;BME280;75718;50.886;11.656;2024-02-26T06:50:50;97341.91;;;1.00;93.84
85315;BME280;75718;50.886;11.656;2024-02-26T06:53:15;97340.16;;;1.02;93.00
85315;BME280;75718;50.886;11.656;2024-02-26T06:55:41;97347.97;;;0.97;93.73
85315;BME280;75718;50.886;11.656;2024-02-26T06:58:06;97339.47;;;0.94;94.03
85315;BME280;75718;50.886;11.656;2024-02-26T07:00:32;97352.41;;;0.91;93.90
85315;BME280;75718;50.886;11.656;2024-02-26T07:02:57;97355.00;;;0.91;93.50
85315;BME280;75718;50.886;11.656;2024-02-26T07:05:23;97349.84;;;0.91;94.09
85315;BME280;75718;50.886;11.656;2024-02-26T07:07:48;97352.22;;;1.00;94.11
85315;BME280;75718;50.886;11.656;2024-02-26T07:10:13;97355.47;;;1.08;92.96
85315;BME280;75718;50.886;11.656;2024-02-26T07:12:39;97362.53;;;1.00;92.81
85315;BME280;75718;50.886;11.656;2024-02-26T07:15:04;97362.72;;;0.91;91.98
85315;BME280;75718;50.886;11.656;2024-02-26T07:17:32;97364.34;;;0.95;91.90
85315;BME280;75718;50.886;11.656;2024-02-26T07:19:59;97364.34;;;0.96;91.73
85315;BME280;75718;50.886;11.656;2024-02-26T07:22:24;97370.22;;;1.01;92.59
85315;BME280;75718;50.886;11.656;2024-02-26T07:24:49;97358.00;;;1.11;93.19
85315;BME280;75718;50.886;11.656;2024-02-26T07:27:15;97360.63;;;1.09;93.23
85315;BME280;75718;50.886;11.656;2024-02-26T07:29:42;97360.50;;;1.14;92.54
85315;BME280;75718;50.886;11.656;2024-02-26T07:32:08;97360.34;;;1.21;92.90
85315;BME280;75718;50.886;11.656;2024-02-26T07:34:33;97365.69;;;1.12;91.95
85315;BME280;75718;50.886;11.656;2024-02-26T07:36:58;97370.94;;;1.08;91.79
85315;BME280;75718;50.886;11.656;2024-02-26T07:39:23;97373.50;;;1.09;92.29
85315;BME280;75718;50.886;11.656;2024-02-26T07:41:49;97379.59;;;1.07;91.80
85315;BME280;75718;50.886;11.656;2024-02-26T07:44:17;97369.00;;;1.18;92.04
85315;BME280;75718;50.886;11.656;2024-02-26T07:46:42;97373.81;;;1.32;91.78
85315;BME280;75718;50.886;11.656;2024-02-26T07:49:07;97376.25;;;1.39;91.40
85315;BME280;75718;50.886;11.656;2024-02-26T07:51:33;97370.72;;;1.54;91.19
85315;BME280;75718;50.886;11.656;2024-02-26T07:53:58;97369.50;;;1.69;91.09
85315;BME280;75718;50.886;11.656;2024-02-26T07:56:23;97379.50;;;1.82;90.37
85315;BME280;75718;50.886;11.656;2024-02-26T07:58:49;97389.69;;;1.88;91.11
85315;BME280;75718;50.886;11.656;2024-02-26T08:01:14;97389.06;;;1.78;89.83
85315;BME280;75718;50.886;11.656;2024-02-26T08:03:40;97403.22;;;1.64;89.78
85315;BME280;75718;50.886;11.656;2024-02-26T08:06:05;97399.75;;;1.64;89.83
85315;BME280;75718;50.886;11.656;2024-02-26T08:08:30;97400.38;;;1.75;90.08
85315;BME280;75718;50.886;11.656;2024-02-26T08:10:56;97401.59;;;1.93;90.46
85315;BME280;75718;50.886;11.656;2024-02-26T08:13:21;97405.19;;;1.88;88.73
85315;BME280;75718;50.886;11.656;2024-02-26T08:15:46;97408.72;;;1.84;89.19
85315;BME280;75718;50.886;11.656;2024-02-26T08:18:11;97415.28;;;1.97;88.95
85315;BME280;75718;50.886;11.656;2024-02-26T08:20:37;97414.75;;;2.18;89.25
85315;BME280;75718;50.886;11.656;2024-02-26T08:23:02;97411.19;;;2.23;88.28
85315;BME280;75718;50.886;11.656;2024-02-26T08:25:27;97414.41;;;2.31;88.50
85315;BME280;75718;50.886;11.656;2024-02-26T08:27:53;97411.47;;;2.44;87.70
85315;BME280;75718;50.886;11.656;2024-02-26T08:30:18;97405.00;;;2.60;87.93
85315;BME280;75718;50.886;11.656;2024-02-26T08:32:45;97411.50;;;2.75;87.69
85315;BME280;75718;50.886;11.656;2024-02-26T08:35:10;97411.19;;;2.85;86.85
85315;BME280;75718;50.886;11.656;2024-02-26T08:37:35;97413.16;;;3.06;87.23
85315;BME280;75718;50.886;11.656;2024-02-26T08:40:00;97408.63;;;3.14;86.45
85315;BME280;75718;50.886;11.656;2024-02-26T08:42:26;97412.78;;;3.19;85.74
85315;BME280;75718;50.886;11.656;2024-02-26T08:44:51;97411.94;;;3.19;87.04
85315;BME280;75718;50.886;11.656;2024-02-26T08:47:16;97409.06;;;3.28;86.94
85315;BME280;75718;50.886;11.656;2024-02-26T08:49:45;97412.38;;;3.33;86.74
85315;BME280;75718;50.886;11.656;2024-02-26T08:52:10;97408.69;;;3.40;86.74
85315;BME280;75718;50.886;11.656;2024-02-26T08:54:36;97404.06;;;3.51;86.35
85315;BME280;75718;50.886;11.656;2024-02-26T08:57:01;97397.69;;;3.60;85.10
85315;BME280;75718;50.886;11.656;2024-02-26T08:59:27;97409.84;;;3.58;85.33
85315;BME280;75718;50.886;11.656;2024-02-26T09:01:53;97403.94;;;3.54;86.75
85315;BME280;75718;50.886;11.656;2024-02-26T09:04:18;97401.06;;;3.62;86.95
85315;BME280;75718;50.886;11.656;2024-02-26T09:06:43;97390.88;;;3.58;85.99
85315;BME280;75718;50.886;11.656;2024-02-26T09:09:08;97402.22;;;3.54;85.71
85315;BME280;75718;50.886;11.656;2024-02-26T09:11:34;97402.00;;;3.60;84.94
85315;BME280;75718;50.886;11.656;2024-02-26T09:13:59;97404.44;;;3.66;84.92
85315;BME280;75718;50.886;11.656;2024-02-26T09:16:24;97405.47;;;3.60;85.04
85315;BME280;75718;50.886;11.656;2024-02-26T09:18:49;97398.09;;;3.74;85.49
85315;BME280;75718;50.886;11.656;2024-02-26T09:21:15;97396.97;;;3.83;84.47
85315;BME280;75718;50.886;11.656;2024-02-26T09:23:41;97396.69;;;3.92;85.94
85315;BME280;75718;50.886;11.656;2024-02-26T09:26:06;97399.16;;;3.95;84.92
85315;BME280;75718;50.886;11.656;2024-02-26T09:28:31;97399.03;;;3.99;85.03
85315;BME280;75718;50.886;11.656;2024-02-26T09:31:03;97397.84;;;4.08;84.67
85315;BME280;75718;50.886;11.656;2024-02-26T09:33:29;97394.94;;;4.18;84.83
85315;BME280;75718;50.886;11.656;2024-02-26T09:35:54;97386.00;;;4.26;83.93
85315;BME280;75718;50.886;11.656;2024-02-26T09:38:19;97390.81;;;4.37;83.46
85315;BME280;75718;50.886;11.656;2024-02-26T09:40:44;97397.22;;;4.51;83.14
85315;BME280;75718;50.886;11.656;2024-02-26T09:43:14;97387.44;;;4.59;82.52
85315;BME280;75718;50.886;11.656;2024-02-26T09:45:41;97386.06;;;4.74;82.87
85315;BME280;75718;50.886;11.656;2024-02-26T09:48:08;97389.03;;;4.86;83.26
85315;BME280;75718;50.886;11.656;2024-02-26T09:50:35;97384.78;;;4.85;82.51
85315;BME280;75718;50.886;11.656;2024-02-26T09:53:01;97389.63;;;4.94;81.93
85315;BME280;75718;50.886;11.656;2024-02-26T09:55:27;97397.97;;;5.02;81.66
85315;BME280;75718;50.886;11.656;2024-02-26T09:57:53;97395.00;;;5.12;81.28
85315;BME280;75718;50.886;11.656;2024-02-26T10:00:20;97394.53;;;5.24;80.53
85315;BME280;75718;50.886;11.656;2024-02-26T10:02:47;97394.09;;;5.36;81.29
85315;BME280;75718;50.886;11.656;2024-02-26T10:05:16;97388.75;;;5.39;80.32
85315;BME280;75718;50.886;11.656;2024-02-26T10:07:44;97400.38;;;5.52;79.83
85315;BME280;75718;50.886;11.656;2024-02-26T10:10:09;97392.16;;;5.62;78.41
85315;BME280;75718;50.886;11.656;2024-02-26T10:12:34;97386.47;;;5.74;79.47
85315;BME280;75718;50.886;11.656;2024-02-26T10:15:00;97390.69;;;5.78;79.54
85315;BME280;75718;50.886;11.656;2024-02-26T10:17:26;97387.50;;;5.93;78.69
85315;BME280;75718;50.886;11.656;2024-02-26T10:19:52;97386.50;;;6.17;80.20
85315;BME280;75718;50.886;11.656;2024-02-26T10:22:22;97383.56;;;6.24;79.43
85315;BME280;75718;50.886;11.656;2024-02-26T10:24:47;97375.66;;;6.47;78.01
85315;BME280;75718;50.886;11.656;2024-02-26T10:27:13;97377.31;;;6.68;78.26
85315;BME280;75718;50.886;11.656;2024-02-26T10:29:38;97382.56;;;7.06;78.99
85315;BME280;75718;50.886;11.656;2024-02-26T10:32:04;97376.66;;;7.21;75.39
85315;BME280;75718;50.886;11.656;2024-02-26T10:34:29;97386.59;;;7.31;76.11
85315;BME280;75718;50.886;11.656;2024-02-26T10:36:55;97383.53;;;7.04;75.23
85315;BME280;75718;50.886;11.656;2024-02-26T10:39:20;97385.06;;;7.09;75.61
85315;BME280;75718;50.886;11.656;2024-02-26T10:41:45;97376.66;;;7.39;74.64
85315;BME280;75718;50.886;11.656;2024-02-26T10:44:12;97380.69;;;7.65;73.30
85315;BME280;75718;50.886;11.656;2024-02-26T10:46:38;97376.84;;;7.90;72.13
85315;BME280;75718;50.886;11.656;2024-02-26T10:49:05;97372.16;;;8.32;70.92
85315;BME280;75718;50.886;11.656;2024-02-26T10:51:34;97371.16;;;8.68;69.85
85315;BME280;75718;50.886;11.656;2024-02-26T10:54:04;97370.19;;;9.02;69.47
85315;BME280;75718;50.886;11.656;2024-02-26T10:56:34;97365.97;;;9.32;67.66
85315;BME280;75718;50.886;11.656;2024-02-26T10:59:00;97375.22;;;9.22;67.43
85315;BME280;75718;50.886;11.656;2024-02-26T11:01:26;97371.13;;;8.85;68.11
85315;BME280;75718;50.886;11.656;2024-02-26T11:03:55;97379.53;;;8.57;69.30
85315;BME280;75718;50.886;11.656;2024-02-26T11:06:22;97379.53;;;8.57;68.49
85315;BME280;75718;50.886;11.656;2024-02-26T11:08:50;97377.47;;;8.47;69.47
85315;BME280;75718;50.886;11.656;2024-02-26T11:11:17;97386.94;;;8.49;68.75
85315;BME280;75718;50.886;11.656;2024-02-26T11:13:46;97383.84;;;8.75;69.41
85315;BME280;75718;50.886;11.656;2024-02-26T11:16:17;97392.44;;;8.94;67.30
85315;BME280;75718;50.886;11.656;2024-02-26T11:18:43;97385.44;;;8.95;67.83
85315;BME280;75718;50.886;11.656;2024-02-26T11:21:13;97383.59;;;8.97;68.33
85315;BME280;75718;50.886;11.656;2024-02-26T11:23:40;97389.66;;;8.97;69.05
85315;BME280;75718;50.886;11.656;2024-02-26T11:26:06;97378.81;;;9.04;68.84
85315;BME280;75718;50.886;11.656;2024-02-26T11:28:33;97387.34;;;9.08;68.78
85315;BME280;75718;50.886;11.656;2024-02-26T11:31:00;97378.19;;;8.99;69.04
85315;BME280;75718;50.886;11.656;2024-02-26T11:33:26;97378.03;;;9.02;67.85
85315;BME280;75718;50.886;11.656;2024-02-26T11:35:53;97378.72;;;9.06;67.95
85315;BME280;75718;50.886;11.656;2024-02-26T11:38:20;97386.03;;;8.99;68.56
85315;BME280;75718;50.886;11.656;2024-02-26T11:40:47;97388.09;;;9.10;68.77
85315;BME280;75718;50.886;11.656;2024-02-26T11:43:12;97383.00;;;9.24;67.42
85315;BME280;75718;50.886;11.656;2024-02-26T11:45:47;97391.31;;;9.15;68.00
85315;BME280;75718;50.886;11.656;2024-02-26T11:48:16;97390.69;;;9.10;68.52
85315;BME280;75718;50.886;11.656;2024-02-26T11:50:49;97399.59;;;9.23;68.76
85315;BME280;75718;50.886;11.656;2024-02-26T11:53:31;97398.78;;;9.38;68.36
85315;BME280;75718;50.886;11.656;2024-02-26T11:56:19;97396.38;;;9.65;67.55
85315;BME280;75718;50.886;11.656;2024-02-26T11:58:46;97391.06;;;9.82;67.64
85315;BME280;75718;50.886;11.656;2024-02-26T12:01:46;97384.50;;;10.06;67.63
85315;BME280;75718;50.886;11.656;2024-02-26T12:04:32;97395.88;;;10.20;66.69
85315;BME280;75718;50.886;11.656;2024-02-26T12:07:01;97394.63;;;10.27;66.28
85315;BME280;75718;50.886;11.656;2024-02-26T12:09:42;97395.75;;;10.08;67.08
85315;BME280;75718;50.886;11.656;2024-02-26T12:12:09;97390.63;;;10.20;66.44
85315;BME280;75718;50.886;11.656;2024-02-26T12:14:39;97384.97;;;10.28;66.38
85315;BME280;75718;50.886;11.656;2024-02-26T12:17:06;97385.59;;;10.47;66.50
85315;BME280;75718;50.886;11.656;2024-02-26T12:19:34;97380.91;;;10.67;65.51
85315;BME280;75718;50.886;11.656;2024-02-26T12:22:00;97385.75;;;10.59;64.80
85315;BME280;75718;50.886;11.656;2024-02-26T12:24:25;97396.50;;;10.55;65.42
85315;BME280;75718;50.886;11.656;2024-02-26T12:26:51;97399.38;;;10.50;65.60
85315;BME280;75718;50.886;11.656;2024-02-26T12:29:16;97401.53;;;10.44;66.33
85315;BME280;75718;50.886;11.656;2024-02-26T12:31:41;97405.28;;;10.54;65.85
85315;BME280;75718;50.886;11.656;2024-02-26T12:34:07;97397.94;;;10.74;64.98
85315;BME280;75718;50.886;11.656;2024-02-26T12:36:34;97395.84;;;10.94;64.26
85315;BME280;75718;50.886;11.656;2024-02-26T12:39:01;97404.66;;;11.07;63.49
85315;BME280;75718;50.886;11.656;2024-02-26T12:41:27;97397.94;;;11.45;63.51
85315;BME280;75718;50.886;11.656;2024-02-26T12:43:54;97398.03;;;11.43;61.69
85315;BME280;75718;50.886;11.656;2024-02-26T12:46:20;97384.09;;;11.57;62.86
85315;BME280;75718;50.886;11.656;2024-02-26T12:48:46;97390.06;;;11.87;62.91